createdAt,value
2019-05-16T00:05:22.000Z,1015.109
2019-05-16T00:15:22.000Z,1015.09
2019-05-16T00:35:22.000Z,1014.973
2019-05-16T00:45:23.000Z,1014.898
2019-05-16T00:55:22.000Z,1014.753
2019-05-16T01:05:22.000Z,1014.676
2019-05-16T01:15:22.000Z,1014.453
2019-05-16T01:25:22.000Z,1014.348
2019-05-16T01:35:25.000Z,1014.364
2019-05-16T01:45:22.000Z,1014.268
2019-05-16T01:55:22.000Z,1014.256
2019-05-16T02:05:22.000Z,1014.171
2019-05-16T02:15:22.000Z,1014.058
2019-05-16T02:25:22.000Z,1013.95
2019-05-16T02:35:22.000Z,1013.912
2019-05-16T02:45:22.000Z,1013.936
2019-05-16T02:55:22.000Z,1013.876
2019-05-16T03:05:22.000Z,1013.819
2019-05-16T03:15:22.000Z,1013.637
2019-05-16T03:25:24.000Z,1013.572
2019-05-16T03:35:22.000Z,1013.532
2019-05-16T03:45:22.000Z,1013.49
2019-05-16T03:55:22.000Z,1013.547
2019-05-16T04:05:22.000Z,1013.515
2019-05-16T04:15:22.000Z,1013.443
2019-05-16T04:25:25.000Z,1013.468
2019-05-16T04:45:23.000Z,1013.483
2019-05-16T04:55:23.000Z,1013.478
2019-05-16T05:05:23.000Z,1013.477
2019-05-16T05:15:23.000Z,1013.456
2019-05-16T05:25:23.000Z,1013.42
2019-05-16T05:35:23.000Z,1013.402
2019-05-16T05:45:23.000Z,1013.358
2019-05-16T05:55:23.000Z,1013.396
2019-05-16T06:05:23.000Z,1013.325
2019-05-16T06:15:23.000Z,1013.354
2019-05-16T06:25:23.000Z,1013.22
2019-05-16T06:35:23.000Z,1013.146
2019-05-16T06:45:23.000Z,1013.209
2019-05-16T06:55:23.000Z,1013.162
2019-05-16T07:05:23.000Z,1013.063
2019-05-16T07:15:23.000Z,1012.988
2019-05-16T07:25:23.000Z,1012.894
2019-05-16T07:35:23.000Z,1012.869
2019-05-16T07:45:23.000Z,1012.832
2019-05-16T07:55:24.000Z,1012.669
2019-05-16T08:05:25.000Z,1012.545
2019-05-16T08:15:23.000Z,1012.463
2019-05-16T08:25:23.000Z,1012.319
2019-05-16T08:35:23.000Z,1012.288
2019-05-16T08:45:23.000Z,1012.155
2019-05-16T08:55:23.000Z,1011.985
2019-05-16T09:05:23.000Z,1011.949
2019-05-16T09:15:23.000Z,1011.884
2019-05-16T09:25:25.000Z,1011.742
2019-05-16T09:35:23.000Z,1011.665
2019-05-16T09:45:23.000Z,1011.551
2019-05-16T09:55:23.000Z,1011.521
2019-05-16T10:05:23.000Z,1011.584
2019-05-16T10:15:23.000Z,1011.502
2019-05-16T10:35:23.000Z,1011.307
2019-05-16T10:45:23.000Z,1011.201
2019-05-16T10:55:23.000Z,1011.194
2019-05-16T11:05:23.000Z,1011.14
2019-05-16T11:15:23.000Z,1011.061
2019-05-16T11:25:23.000Z,1010.943
2019-05-16T11:35:23.000Z,1010.818
2019-05-16T11:55:23.000Z,1010.343
2019-05-16T12:05:23.000Z,1010.368
2019-05-16T12:15:26.000Z,1010.289
2019-05-16T12:25:23.000Z,1010.276
2019-05-16T12:35:23.000Z,1010.357
2019-05-16T12:45:23.000Z,1010.38
2019-05-16T12:55:23.000Z,1010.272
2019-05-16T13:05:24.000Z,1010.004
2019-05-16T13:15:24.000Z,1009.811
2019-05-16T13:25:24.000Z,1009.568
2019-05-16T13:35:24.000Z,1009.354
2019-05-16T13:45:24.000Z,1009.182
2019-05-16T13:55:24.000Z,1008.989
2019-05-16T14:05:24.000Z,1008.879
2019-05-16T14:15:24.000Z,1008.802
2019-05-16T14:25:24.000Z,1008.723
2019-05-16T14:35:24.000Z,1008.495
2019-05-16T14:45:25.000Z,1008.471
2019-05-16T14:55:25.000Z,1008.413
2019-05-16T15:05:24.000Z,1008.341
2019-05-16T15:15:24.000Z,1008.225
2019-05-16T15:25:24.000Z,1008.063
2019-05-16T15:35:24.000Z,1008.005
2019-05-16T15:45:24.000Z,1007.918
2019-05-16T15:55:24.000Z,1007.809
2019-05-16T16:05:24.000Z,1007.665
2019-05-16T16:15:24.000Z,1007.443
2019-05-16T16:25:26.000Z,1007.395
2019-05-16T16:35:24.000Z,1007.277
2019-05-16T16:55:24.000Z,1007.22
2019-05-16T17:05:24.000Z,1007.081
2019-05-16T17:15:24.000Z,1006.905
2019-05-16T17:25:24.000Z,1006.762
2019-05-16T17:35:24.000Z,1006.643
2019-05-16T17:45:24.000Z,1006.636
2019-05-16T17:55:28.000Z,1006.607
2019-05-16T18:05:24.000Z,1006.582
2019-05-16T18:15:25.000Z,1006.509
2019-05-16T18:25:24.000Z,1006.424
2019-05-16T18:35:24.000Z,1006.384
2019-05-16T18:45:24.000Z,1006.221
2019-05-16T18:55:24.000Z,1006.138
2019-05-16T19:15:24.000Z,1006.051
2019-05-16T19:25:24.000Z,1005.967
2019-05-16T19:35:24.000Z,1006.018
2019-05-16T19:45:24.000Z,1006.014
2019-05-16T19:55:25.000Z,1005.947
2019-05-16T20:05:24.000Z,1005.893
2019-05-16T20:15:24.000Z,1005.789
2019-05-16T20:25:24.000Z,1005.745
2019-05-16T20:35:24.000Z,1005.784
2019-05-16T20:45:28.000Z,1005.756
2019-05-16T20:55:25.000Z,1005.669
2019-05-16T21:05:24.000Z,1005.576
2019-05-16T21:15:24.000Z,1005.548
2019-05-16T21:25:24.000Z,1005.493
2019-05-16T21:35:24.000Z,1005.353
2019-05-16T21:45:26.000Z,1005.396
2019-05-16T21:55:25.000Z,1005.365
2019-05-16T22:05:25.000Z,1005.414
2019-05-16T22:15:27.000Z,1005.28
2019-05-16T22:35:25.000Z,1005.088
2019-05-16T22:45:25.000Z,1005.022
2019-05-16T22:55:25.000Z,1004.896
2019-05-16T23:05:25.000Z,1004.816
2019-05-16T23:15:25.000Z,1004.865
2019-05-16T23:25:25.000Z,1004.774
2019-05-16T23:35:25.000Z,1004.667
2019-05-16T23:45:26.000Z,1004.674
2019-05-16T23:55:27.000Z,1004.657
